sensor_id;sensor_type;location;lat;lon;timestamp;P1;durP1;ratioP1;P2;durP2;ratioP2
71080;SDS011;58740;50.672;18.690;2022-10-10T00:01:34;11.00;;;4.80;;
71080;SDS011;58740;50.672;18.690;2022-10-10T00:04:03;14.30;;;5.80;;
71080;SDS011;58740;50.672;18.690;2022-10-10T00:06:32;12.40;;;5.50;;
71080;SDS011;58740;50.672;18.690;2022-10-10T00:09:03;14.40;;;6.00;;
71080;SDS011;58740;50.672;18.690;2022-10-10T00:11:32;16.80;;;6.60;;
71080;SDS011;58740;50.672;18.690;2022-10-10T00:14:00;11.00;;;5.60;;
71080;SDS011;58740;50.672;18.690;2022-10-10T00:16:29;10.00;;;5.50;;
71080;SDS011;58740;50.672;18.690;2022-10-10T00:18:57;11.80;;;5.50;;
71080;SDS011;58740;50.672;18.690;2022-10-10T00:21:25;10.80;;;5.40;;
71080;SDS011;58740;50.672;18.690;2022-10-10T00:23:52;10.80;;;4.70;;
71080;SDS011;58740;50.672;18.690;2022-10-10T00:26:20;14.90;;;5.60;;
71080;SDS011;58740;50.672;18.690;2022-10-10T00:28:48;13.50;;;5.40;;
71080;SDS011;58740;50.672;18.690;2022-10-10T00:31:16;9.30;;;4.80;;
71080;SDS011;58740;50.672;18.690;2022-10-10T00:33:44;12.40;;;5.20;;
71080;SDS011;58740;50.672;18.690;2022-10-10T00:36:12;12.20;;;4.90;;
71080;SDS011;58740;50.672;18.690;2022-10-10T00:38:40;10.60;;;4.60;;
71080;SDS011;58740;50.672;18.690;2022-10-10T00:41:08;7.80;;;3.90;;
71080;SDS011;58740;50.672;18.690;2022-10-10T00:43:36;11.10;;;5.60;;
71080;SDS011;58740;50.672;18.690;2022-10-10T00:46:04;11.70;;;5.60;;
71080;SDS011;58740;50.672;18.690;2022-10-10T00:48:34;11.50;;;5.10;;
71080;SDS011;58740;50.672;18.690;2022-10-10T00:51:11;10.60;;;4.10;;
71080;SDS011;58740;50.672;18.690;2022-10-10T00:53:47;15.90;;;5.40;;
71080;SDS011;58740;50.672;18.690;2022-10-10T00:56:21;10.50;;;5.00;;
71080;SDS011;58740;50.672;18.690;2022-10-10T00:58:55;11.80;;;4.40;;
71080;SDS011;58740;50.672;18.690;2022-10-10T01:01:26;10.10;;;4.70;;
71080;SDS011;58740;50.672;18.690;2022-10-10T01:03:59;8.20;;;3.90;;
71080;SDS011;58740;50.672;18.690;2022-10-10T01:06:28;11.10;;;4.00;;
71080;SDS011;58740;50.672;18.690;2022-10-10T01:08:58;8.70;;;4.40;;
71080;SDS011;58740;50.672;18.690;2022-10-10T01:11:37;13.10;;;4.30;;
71080;SDS011;58740;50.672;18.690;2022-10-10T01:17:32;9.60;;;4.60;;
71080;SDS011;58740;50.672;18.690;2022-10-10T01:26:33;10.50;;;4.90;;
71080;SDS011;58740;50.672;18.690;2022-10-10T01:32:15;10.20;;;4.60;;
71080;SDS011;58740;50.672;18.690;2022-10-10T01:40:48;10.30;;;3.50;;
71080;SDS011;58740;50.672;18.690;2022-10-10T01:43:20;7.70;;;3.80;;
71080;SDS011;58740;50.672;18.690;2022-10-10T01:45:49;10.90;;;4.40;;
71080;SDS011;58740;50.672;18.690;2022-10-10T01:48:23;8.10;;;3.60;;
71080;SDS011;58740;50.672;18.690;2022-10-10T01:51:06;10.90;;;3.80;;
71080;SDS011;58740;50.672;18.690;2022-10-10T01:53:53;8.80;;;3.60;;
71080;SDS011;58740;50.672;18.690;2022-10-10T01:57:01;11.30;;;4.20;;
71080;SDS011;58740;50.672;18.690;2022-10-10T01:59:45;8.50;;;3.60;;
71080;SDS011;58740;50.672;18.690;2022-10-10T02:05:03;10.00;;;3.80;;
71080;SDS011;58740;50.672;18.690;2022-10-10T02:07:42;9.10;;;3.70;;
71080;SDS011;58740;50.672;18.690;2022-10-10T02:10:20;8.20;;;3.00;;
71080;SDS011;58740;50.672;18.690;2022-10-10T02:12:51;9.60;;;4.00;;
71080;SDS011;58740;50.672;18.690;2022-10-10T02:15:24;12.40;;;3.80;;
71080;SDS011;58740;50.672;18.690;2022-10-10T02:17:56;9.20;;;4.20;;
71080;SDS011;58740;50.672;18.690;2022-10-10T02:20:26;9.10;;;3.70;;
71080;SDS011;58740;50.672;18.690;2022-10-10T02:22:56;8.70;;;4.30;;
71080;SDS011;58740;50.672;18.690;2022-10-10T02:25:28;10.80;;;4.60;;
71080;SDS011;58740;50.672;18.690;2022-10-10T02:28:07;7.80;;;3.70;;
71080;SDS011;58740;50.672;18.690;2022-10-10T02:30:46;8.30;;;4.00;;
71080;SDS011;58740;50.672;18.690;2022-10-10T02:33:24;7.40;;;3.00;;
71080;SDS011;58740;50.672;18.690;2022-10-10T02:35:59;8.40;;;4.00;;
71080;SDS011;58740;50.672;18.690;2022-10-10T02:38:29;10.60;;;4.60;;
71080;SDS011;58740;50.672;18.690;2022-10-10T02:40:58;11.10;;;4.40;;
71080;SDS011;58740;50.672;18.690;2022-10-10T02:43:31;9.40;;;3.90;;
71080;SDS011;58740;50.672;18.690;2022-10-10T02:46:03;12.30;;;4.90;;
71080;SDS011;58740;50.672;18.690;2022-10-10T02:48:35;9.80;;;5.30;;
71080;SDS011;58740;50.672;18.690;2022-10-10T02:51:04;9.60;;;4.40;;
71080;SDS011;58740;50.672;18.690;2022-10-10T02:53:33;8.50;;;4.50;;
71080;SDS011;58740;50.672;18.690;2022-10-10T02:56:04;9.10;;;5.10;;
71080;SDS011;58740;50.672;18.690;2022-10-10T02:58:32;11.50;;;4.50;;
71080;SDS011;58740;50.672;18.690;2022-10-10T03:00:59;9.80;;;5.30;;
71080;SDS011;58740;50.672;18.690;2022-10-10T03:03:27;13.80;;;5.70;;
71080;SDS011;58740;50.672;18.690;2022-10-10T03:05:55;15.00;;;5.70;;
71080;SDS011;58740;50.672;18.690;2022-10-10T03:08:23;9.00;;;4.90;;
71080;SDS011;58740;50.672;18.690;2022-10-10T03:11:09;9.10;;;2.90;;
71080;SDS011;58740;50.672;18.690;2022-10-10T03:13:37;12.40;;;4.30;;
71080;SDS011;58740;50.672;18.690;2022-10-10T03:16:05;9.80;;;4.60;;
71080;SDS011;58740;50.672;18.690;2022-10-10T03:18:33;12.50;;;4.30;;
71080;SDS011;58740;50.672;18.690;2022-10-10T03:21:00;11.80;;;5.50;;
71080;SDS011;58740;50.672;18.690;2022-10-10T03:23:28;11.70;;;5.30;;
71080;SDS011;58740;50.672;18.690;2022-10-10T03:25:56;13.00;;;4.80;;
71080;SDS011;58740;50.672;18.690;2022-10-10T03:28:24;11.90;;;5.10;;
71080;SDS011;58740;50.672;18.690;2022-10-10T03:30:52;8.00;;;3.80;;
71080;SDS011;58740;50.672;18.690;2022-10-10T03:33:19;9.90;;;4.20;;
71080;SDS011;58740;50.672;18.690;2022-10-10T03:35:48;11.60;;;4.50;;
71080;SDS011;58740;50.672;18.690;2022-10-10T03:38:16;8.60;;;3.80;;
71080;SDS011;58740;50.672;18.690;2022-10-10T03:40:44;13.20;;;4.50;;
71080;SDS011;58740;50.672;18.690;2022-10-10T03:43:13;11.50;;;5.50;;
71080;SDS011;58740;50.672;18.690;2022-10-10T03:45:42;11.10;;;3.90;;
71080;SDS011;58740;50.672;18.690;2022-10-10T03:48:11;10.20;;;4.60;;
71080;SDS011;58740;50.672;18.690;2022-10-10T03:50:39;9.90;;;4.50;;
71080;SDS011;58740;50.672;18.690;2022-10-10T03:53:07;9.90;;;4.40;;
71080;SDS011;58740;50.672;18.690;2022-10-10T03:55:38;8.90;;;4.00;;
71080;SDS011;58740;50.672;18.690;2022-10-10T03:58:07;10.30;;;4.70;;
71080;SDS011;58740;50.672;18.690;2022-10-10T04:00:37;8.50;;;4.00;;
71080;SDS011;58740;50.672;18.690;2022-10-10T04:03:05;10.00;;;4.10;;
71080;SDS011;58740;50.672;18.690;2022-10-10T04:05:35;11.30;;;4.90;;
71080;SDS011;58740;50.672;18.690;2022-10-10T04:08:05;9.60;;;3.50;;
71080;SDS011;58740;50.672;18.690;2022-10-10T04:10:32;10.80;;;4.90;;
71080;SDS011;58740;50.672;18.690;2022-10-10T04:13:00;10.30;;;4.20;;
71080;SDS011;58740;50.672;18.690;2022-10-10T04:15:28;9.60;;;3.80;;
71080;SDS011;58740;50.672;18.690;2022-10-10T04:17:57;8.50;;;3.50;;
71080;SDS011;58740;50.672;18.690;2022-10-10T04:20:26;8.10;;;3.70;;
71080;SDS011;58740;50.672;18.690;2022-10-10T04:22:53;12.20;;;4.30;;
71080;SDS011;58740;50.672;18.690;2022-10-10T04:25:21;10.60;;;5.00;;
71080;SDS011;58740;50.672;18.690;2022-10-10T04:27:49;9.10;;;4.60;;
71080;SDS011;58740;50.672;18.690;2022-10-10T04:30:17;11.50;;;5.50;;
71080;SDS011;58740;50.672;18.690;2022-10-10T04:32:45;9.50;;;4.00;;
71080;SDS011;58740;50.672;18.690;2022-10-10T04:35:13;8.90;;;5.20;;
71080;SDS011;58740;50.672;18.690;2022-10-10T04:37:41;9.60;;;4.40;;
71080;SDS011;58740;50.672;18.690;2022-10-10T04:40:09;7.80;;;3.30;;
71080;SDS011;58740;50.672;18.690;2022-10-10T04:42:36;12.50;;;5.70;;
71080;SDS011;58740;50.672;18.690;2022-10-10T04:45:04;12.30;;;6.00;;
71080;SDS011;58740;50.672;18.690;2022-10-10T04:47:33;15.30;;;5.40;;
71080;SDS011;58740;50.672;18.690;2022-10-10T04:50:01;14.70;;;6.30;;
71080;SDS011;58740;50.672;18.690;2022-10-10T04:52:28;9.60;;;4.80;;
71080;SDS011;58740;50.672;18.690;2022-10-10T04:54:56;7.90;;;4.50;;
71080;SDS011;58740;50.672;18.690;2022-10-10T04:57:24;10.80;;;4.80;;
71080;SDS011;58740;50.672;18.690;2022-10-10T04:59:51;6.10;;;2.90;;
71080;SDS011;58740;50.672;18.690;2022-10-10T05:02:19;9.40;;;4.30;;
71080;SDS011;58740;50.672;18.690;2022-10-10T05:04:47;9.20;;;3.70;;
71080;SDS011;58740;50.672;18.690;2022-10-10T05:07:15;13.70;;;4.80;;
71080;SDS011;58740;50.672;18.690;2022-10-10T05:09:43;9.60;;;4.10;;
71080;SDS011;58740;50.672;18.690;2022-10-10T05:12:10;10.10;;;4.10;;
71080;SDS011;58740;50.672;18.690;2022-10-10T05:14:38;13.40;;;4.20;;
71080;SDS011;58740;50.672;18.690;2022-10-10T05:17:10;10.60;;;5.30;;
71080;SDS011;58740;50.672;18.690;2022-10-10T05:19:38;8.80;;;3.10;;
71080;SDS011;58740;50.672;18.690;2022-10-10T05:22:06;10.50;;;5.30;;
71080;SDS011;58740;50.672;18.690;2022-10-10T05:24:33;16.70;;;5.90;;
71080;SDS011;58740;50.672;18.690;2022-10-10T05:27:01;11.20;;;4.80;;
71080;SDS011;58740;50.672;18.690;2022-10-10T05:29:29;12.30;;;5.00;;
71080;SDS011;58740;50.672;18.690;2022-10-10T05:31:57;10.30;;;3.70;;
71080;SDS011;58740;50.672;18.690;2022-10-10T05:34:25;13.60;;;4.30;;
71080;SDS011;58740;50.672;18.690;2022-10-10T05:36:52;10.60;;;4.60;;
71080;SDS011;58740;50.672;18.690;2022-10-10T05:39:23;10.40;;;4.20;;
71080;SDS011;58740;50.672;18.690;2022-10-10T05:41:50;10.80;;;5.10;;
71080;SDS011;58740;50.672;18.690;2022-10-10T05:44:18;9.80;;;4.70;;
71080;SDS011;58740;50.672;18.690;2022-10-10T05:46:46;12.40;;;5.90;;
71080;SDS011;58740;50.672;18.690;2022-10-10T05:49:13;9.30;;;5.20;;
71080;SDS011;58740;50.672;18.690;2022-10-10T05:51:41;13.00;;;5.30;;
71080;SDS011;58740;50.672;18.690;2022-10-10T05:54:09;11.20;;;5.60;;
71080;SDS011;58740;50.672;18.690;2022-10-10T05:56:36;14.20;;;4.80;;
71080;SDS011;58740;50.672;18.690;2022-10-10T05:59:04;11.10;;;4.90;;
71080;SDS011;58740;50.672;18.690;2022-10-10T06:01:32;11.60;;;4.50;;
71080;SDS011;58740;50.672;18.690;2022-10-10T06:04:00;9.50;;;4.70;;
71080;SDS011;58740;50.672;18.690;2022-10-10T06:06:28;7.50;;;3.60;;
71080;SDS011;58740;50.672;18.690;2022-10-10T06:08:56;10.20;;;4.00;;
71080;SDS011;58740;50.672;18.690;2022-10-10T06:11:25;10.40;;;3.50;;
71080;SDS011;58740;50.672;18.690;2022-10-10T06:13:53;12.60;;;4.90;;
71080;SDS011;58740;50.672;18.690;2022-10-10T06:16:22;15.10;;;4.70;;
71080;SDS011;58740;50.672;18.690;2022-10-10T06:18:51;12.00;;;4.10;;
71080;SDS011;58740;50.672;18.690;2022-10-10T06:21:19;13.10;;;4.60;;
71080;SDS011;58740;50.672;18.690;2022-10-10T06:23:47;14.40;;;4.80;;
71080;SDS011;58740;50.672;18.690;2022-10-10T06:26:15;12.30;;;4.30;;
71080;SDS011;58740;50.672;18.690;2022-10-10T06:28:43;12.90;;;4.20;;
71080;SDS011;58740;50.672;18.690;2022-10-10T06:31:11;13.90;;;3.90;;
71080;SDS011;58740;50.672;18.690;2022-10-10T06:33:41;11.30;;;2.90;;
71080;SDS011;58740;50.672;18.690;2022-10-10T06:36:13;13.20;;;3.60;;
71080;SDS011;58740;50.672;18.690;2022-10-10T06:38:43;11.70;;;3.70;;
71080;SDS011;58740;50.672;18.690;2022-10-10T06:41:11;7.90;;;2.80;;
71080;SDS011;58740;50.672;18.690;2022-10-10T06:43:39;7.90;;;2.40;;
71080;SDS011;58740;50.672;18.690;2022-10-10T06:46:08;8.90;;;3.70;;
71080;SDS011;58740;50.672;18.690;2022-10-10T06:48:36;12.00;;;4.40;;
71080;SDS011;58740;50.672;18.690;2022-10-10T06:51:12;8.00;;;2.80;;
71080;SDS011;58740;50.672;18.690;2022-10-10T06:53:42;10.00;;;3.40;;
71080;SDS011;58740;50.672;18.690;2022-10-10T06:56:12;7.40;;;2.50;;
71080;SDS011;58740;50.672;18.690;2022-10-10T06:58:54;9.50;;;3.20;;
71080;SDS011;58740;50.672;18.690;2022-10-10T07:01:23;6.80;;;2.20;;
71080;SDS011;58740;50.672;18.690;2022-10-10T07:03:52;9.60;;;3.00;;
71080;SDS011;58740;50.672;18.690;2022-10-10T07:06:20;7.20;;;2.90;;
71080;SDS011;58740;50.672;18.690;2022-10-10T07:08:48;13.10;;;3.90;;
71080;SDS011;58740;50.672;18.690;2022-10-10T07:11:16;8.90;;;3.10;;
71080;SDS011;58740;50.672;18.690;2022-10-10T07:13:43;9.80;;;3.80;;
71080;SDS011;58740;50.672;18.690;2022-10-10T07:16:11;11.30;;;3.60;;
71080;SDS011;58740;50.672;18.690;2022-10-10T07:18:38;7.40;;;3.20;;
71080;SDS011;58740;50.672;18.690;2022-10-10T07:21:06;9.40;;;3.10;;
71080;SDS011;58740;50.672;18.690;2022-10-10T07:23:34;7.60;;;2.30;;
71080;SDS011;58740;50.672;18.690;2022-10-10T07:26:05;8.30;;;3.00;;
71080;SDS011;58740;50.672;18.690;2022-10-10T07:28:37;10.50;;;2.30;;
71080;SDS011;58740;50.672;18.690;2022-10-10T07:31:08;7.90;;;2.90;;
71080;SDS011;58740;50.672;18.690;2022-10-10T07:33:39;8.10;;;2.70;;
71080;SDS011;58740;50.672;18.690;2022-10-10T07:36:17;7.10;;;2.20;;
71080;SDS011;58740;50.672;18.690;2022-10-10T07:38:49;8.00;;;3.00;;
71080;SDS011;58740;50.672;18.690;2022-10-10T07:41:18;10.70;;;4.30;;
71080;SDS011;58740;50.672;18.690;2022-10-10T07:43:53;8.20;;;3.30;;
71080;SDS011;58740;50.672;18.690;2022-10-10T07:46:23;8.30;;;3.00;;
71080;SDS011;58740;50.672;18.690;2022-10-10T07:48:51;9.40;;;3.30;;
71080;SDS011;58740;50.672;18.690;2022-10-10T07:51:19;8.00;;;2.50;;
71080;SDS011;58740;50.672;18.690;2022-10-10T07:53:46;6.50;;;2.30;;
71080;SDS011;58740;50.672;18.690;2022-10-10T07:56:14;9.80;;;3.70;;
71080;SDS011;58740;50.672;18.690;2022-10-10T07:58:41;11.80;;;3.40;;
71080;SDS011;58740;50.672;18.690;2022-10-10T08:01:11;10.30;;;3.90;;
71080;SDS011;58740;50.672;18.690;2022-10-10T08:03:39;6.20;;;2.40;;
71080;SDS011;58740;50.672;18.690;2022-10-10T08:06:10;9.00;;;3.50;;
71080;SDS011;58740;50.672;18.690;2022-10-10T08:08:40;7.40;;;3.30;;
71080;SDS011;58740;50.672;18.690;2022-10-10T08:11:19;9.60;;;3.40;;
71080;SDS011;58740;50.672;18.690;2022-10-10T08:13:49;7.90;;;3.00;;
71080;SDS011;58740;50.672;18.690;2022-10-10T08:16:17;8.80;;;3.20;;
71080;SDS011;58740;50.672;18.690;2022-10-10T08:18:45;14.80;;;4.50;;
71080;SDS011;58740;50.672;18.690;2022-10-10T08:21:14;12.10;;;4.50;;
71080;SDS011;58740;50.672;18.690;2022-10-10T08:23:44;8.40;;;3.10;;
71080;SDS011;58740;50.672;18.690;2022-10-10T08:26:14;10.90;;;3.90;;
71080;SDS011;58740;50.672;18.690;2022-10-10T08:28:43;12.10;;;3.90;;
71080;SDS011;58740;50.672;18.690;2022-10-10T08:31:14;8.60;;;3.70;;
71080;SDS011;58740;50.672;18.690;2022-10-10T08:33:46;11.00;;;3.20;;
71080;SDS011;58740;50.672;18.690;2022-10-10T08:36:21;10.20;;;3.80;;
71080;SDS011;58740;50.672;18.690;2022-10-10T08:38:50;8.80;;;3.30;;
71080;SDS011;58740;50.672;18.690;2022-10-10T08:41:43;8.70;;;3.00;;
71080;SDS011;58740;50.672;18.690;2022-10-10T08:44:23;8.80;;;3.20;;
71080;SDS011;58740;50.672;18.690;2022-10-10T08:47:04;7.40;;;2.90;;
71080;SDS011;58740;50.672;18.690;2022-10-10T08:49:51;10.30;;;2.90;;
71080;SDS011;58740;50.672;18.690;2022-10-10T08:52:40;8.50;;;3.00;;
71080;SDS011;58740;50.672;18.690;2022-10-10T08:55:16;7.30;;;2.40;;
71080;SDS011;58740;50.672;18.690;2022-10-10T08:57:58;7.60;;;2.50;;
71080;SDS011;58740;50.672;18.690;2022-10-10T09:00:36;13.70;;;4.10;;
71080;SDS011;58740;50.672;18.690;2022-10-10T09:03:18;6.50;;;2.70;;
71080;SDS011;58740;50.672;18.690;2022-10-10T09:11:36;10.40;;;3.60;;
71080;SDS011;58740;50.672;18.690;2022-10-10T09:23:02;8.10;;;3.00;;
71080;SDS011;58740;50.672;18.690;2022-10-10T09:25:42;11.00;;;4.00;;
71080;SDS011;58740;50.672;18.690;2022-10-10T09:28:47;9.50;;;3.60;;
71080;SDS011;58740;50.672;18.690;2022-10-10T09:31:32;8.20;;;3.30;;
71080;SDS011;58740;50.672;18.690;2022-10-10T09:36:43;12.50;;;3.90;;
71080;SDS011;58740;50.672;18.690;2022-10-10T09:39:19;8.00;;;2.90;;
71080;SDS011;58740;50.672;18.690;2022-10-10T09:41:59;8.80;;;3.50;;
71080;SDS011;58740;50.672;18.690;2022-10-10T09:44:30;6.60;;;2.50;;
71080;SDS011;58740;50.672;18.690;2022-10-10T09:46:58;8.80;;;3.40;;
71080;SDS011;58740;50.672;18.690;2022-10-10T09:49:28;9.60;;;4.00;;
71080;SDS011;58740;50.672;18.690;2022-10-10T09:51:56;12.40;;;4.20;;
71080;SDS011;58740;50.672;18.690;2022-10-10T09:54:24;9.70;;;3.20;;
71080;SDS011;58740;50.672;18.690;2022-10-10T09:56:56;10.20;;;3.90;;
71080;SDS011;58740;50.672;18.690;2022-10-10T09:59:42;8.60;;;3.40;;
71080;SDS011;58740;50.672;18.690;2022-10-10T10:02:23;8.10;;;3.30;;
71080;SDS011;58740;50.672;18.690;2022-10-10T10:04:53;6.20;;;3.10;;
71080;SDS011;58740;50.672;18.690;2022-10-10T10:10:00;5.80;;;3.20;;
71080;SDS011;58740;50.672;18.690;2022-10-10T10:12:38;7.20;;;3.20;;
71080;SDS011;58740;50.672;18.690;2022-10-10T10:15:28;8.50;;;2.40;;
71080;SDS011;58740;50.672;18.690;2022-10-10T10:20:46;7.80;;;3.00;;
71080;SDS011;58740;50.672;18.690;2022-10-10T10:23:31;6.20;;;3.40;;
71080;SDS011;58740;50.672;18.690;2022-10-10T10:26:13;10.00;;;4.40;;
71080;SDS011;58740;50.672;18.690;2022-10-10T10:28:42;9.00;;;3.10;;
71080;SDS011;58740;50.672;18.690;2022-10-10T10:31:35;9.30;;;3.70;;
71080;SDS011;58740;50.672;18.690;2022-10-10T10:37:23;4.70;;;2.60;;
71080;SDS011;58740;50.672;18.690;2022-10-10T10:40:14;6.20;;;3.00;;
71080;SDS011;58740;50.672;18.690;2022-10-10T10:43:09;6.90;;;3.50;;
71080;SDS011;58740;50.672;18.690;2022-10-10T10:57:10;6.30;;;2.80;;
71080;SDS011;58740;50.672;18.690;2022-10-10T11:00:15;7.90;;;3.40;;
71080;SDS011;58740;50.672;18.690;2022-10-10T11:06:22;6.90;;;3.60;;
71080;SDS011;58740;50.672;18.690;2022-10-10T11:11:42;9.20;;;4.30;;
71080;SDS011;58740;50.672;18.690;2022-10-10T11:14:50;7.20;;;3.40;;
71080;SDS011;58740;50.672;18.690;2022-10-10T11:23:12;5.30;;;3.00;;
71080;SDS011;58740;50.672;18.690;2022-10-10T11:25:49;7.20;;;3.40;;
71080;SDS011;58740;50.672;18.690;2022-10-10T11:28:25;7.60;;;3.60;;
71080;SDS011;58740;50.672;18.690;2022-10-10T11:31:00;10.10;;;4.60;;
71080;SDS011;58740;50.672;18.690;2022-10-10T11:33:37;8.20;;;3.60;;
71080;SDS011;58740;50.672;18.690;2022-10-10T11:36:24;8.30;;;3.90;;
71080;SDS011;58740;50.672;18.690;2022-10-10T11:39:11;6.70;;;3.60;;
71080;SDS011;58740;50.672;18.690;2022-10-10T11:44:33;7.60;;;4.30;;
71080;SDS011;58740;50.672;18.690;2022-10-10T11:47:10;6.50;;;3.50;;
71080;SDS011;58740;50.672;18.690;2022-10-10T11:49:55;6.70;;;3.70;;
71080;SDS011;58740;50.672;18.690;2022-10-10T11:52:33;10.20;;;4.60;;
71080;SDS011;58740;50.672;18.690;2022-10-10T11:55:32;9.00;;;4.10;;
71080;SDS011;58740;50.672;18.690;2022-10-10T12:00:42;10.30;;;3.20;;
71080;SDS011;58740;50.672;18.690;2022-10-10T12:03:16;7.90;;;3.80;;
71080;SDS011;58740;50.672;18.690;2022-10-10T12:05:51;9.70;;;4.50;;
71080;SDS011;58740;50.672;18.690;2022-10-10T12:11:18;9.50;;;4.50;;
71080;SDS011;58740;50.672;18.690;2022-10-10T12:13:55;7.10;;;3.20;;
71080;SDS011;58740;50.672;18.690;2022-10-10T12:16:28;7.60;;;3.10;;
71080;SDS011;58740;50.672;18.690;2022-10-10T12:19:05;7.30;;;2.90;;
71080;SDS011;58740;50.672;18.690;2022-10-10T12:22:17;7.70;;;4.00;;
71080;SDS011;58740;50.672;18.690;2022-10-10T12:25:23;8.80;;;3.80;;
71080;SDS011;58740;50.672;18.690;2022-10-10T12:28:21;8.80;;;4.80;;
71080;SDS011;58740;50.672;18.690;2022-10-10T12:35:53;5.90;;;2.90;;
71080;SDS011;58740;50.672;18.690;2022-10-10T12:38:25;8.40;;;3.90;;
71080;SDS011;58740;50.672;18.690;2022-10-10T12:41:07;7.90;;;4.10;;
71080;SDS011;58740;50.672;18.690;2022-10-10T12:43:40;9.60;;;4.80;;
71080;SDS011;58740;50.672;18.690;2022-10-10T12:49:21;7.00;;;3.30;;
71080;SDS011;58740;50.672;18.690;2022-10-10T12:54:43;7.70;;;4.50;;
71080;SDS011;58740;50.672;18.690;2022-10-10T12:57:19;6.10;;;2.80;;
71080;SDS011;58740;50.672;18.690;2022-10-10T13:00:23;8.70;;;4.10;;
71080;SDS011;58740;50.672;18.690;2022-10-10T13:02:57;8.60;;;4.30;;
71080;SDS011;58740;50.672;18.690;2022-10-10T13:05:29;9.50;;;4.40;;
71080;SDS011;58740;50.672;18.690;2022-10-10T13:08:04;8.80;;;4.50;;
71080;SDS011;58740;50.672;18.690;2022-10-10T13:10:37;8.90;;;4.30;;
71080;SDS011;58740;50.672;18.690;2022-10-10T13:13:19;11.20;;;4.80;;
71080;SDS011;58740;50.672;18.690;2022-10-10T13:15:52;13.00;;;7.20;;
71080;SDS011;58740;50.672;18.690;2022-10-10T13:18:32;8.60;;;4.50;;
71080;SDS011;58740;50.672;18.690;2022-10-10T13:21:03;7.00;;;3.80;;
71080;SDS011;58740;50.672;18.690;2022-10-10T13:23:36;8.70;;;3.10;;
71080;SDS011;58740;50.672;18.690;2022-10-10T13:26:28;7.60;;;3.50;;
71080;SDS011;58740;50.672;18.690;2022-10-10T13:29:05;8.30;;;5.10;;
71080;SDS011;58740;50.672;18.690;2022-10-10T13:31:43;8.50;;;4.60;;
71080;SDS011;58740;50.672;18.690;2022-10-10T13:34:15;9.90;;;4.80;;
71080;SDS011;58740;50.672;18.690;2022-10-10T13:36:55;6.70;;;3.50;;
71080;SDS011;58740;50.672;18.690;2022-10-10T13:39:25;11.40;;;4.60;;
71080;SDS011;58740;50.672;18.690;2022-10-10T13:41:56;8.90;;;3.60;;
71080;SDS011;58740;50.672;18.690;2022-10-10T13:44:31;9.50;;;4.70;;
71080;SDS011;58740;50.672;18.690;2022-10-10T13:53:23;8.10;;;3.60;;
71080;SDS011;58740;50.672;18.690;2022-10-10T14:01:42;13.30;;;5.30;;
71080;SDS011;58740;50.672;18.690;2022-10-10T14:04:20;8.80;;;5.00;;
71080;SDS011;58740;50.672;18.690;2022-10-10T14:09:34;10.30;;;4.60;;
71080;SDS011;58740;50.672;18.690;2022-10-10T14:12:07;10.00;;;4.70;;
71080;SDS011;58740;50.672;18.690;2022-10-10T14:14:48;9.70;;;5.20;;
71080;SDS011;58740;50.672;18.690;2022-10-10T14:17:17;9.00;;;4.80;;
71080;SDS011;58740;50.672;18.690;2022-10-10T14:19:46;8.50;;;3.90;;
71080;SDS011;58740;50.672;18.690;2022-10-10T14:22:16;10.20;;;4.70;;
71080;SDS011;58740;50.672;18.690;2022-10-10T14:24:44;12.80;;;5.60;;
71080;SDS011;58740;50.672;18.690;2022-10-10T14:29:46;10.40;;;5.30;;
71080;SDS011;58740;50.672;18.690;2022-10-10T14:32:15;10.10;;;4.90;;
71080;SDS011;58740;50.672;18.690;2022-10-10T14:34:44;9.20;;;5.20;;
71080;SDS011;58740;50.672;18.690;2022-10-10T14:37:24;16.00;;;5.80;;
71080;SDS011;58740;50.672;18.690;2022-10-10T14:39:54;14.50;;;6.70;;
71080;SDS011;58740;50.672;18.690;2022-10-10T14:42:23;12.60;;;5.30;;
71080;SDS011;58740;50.672;18.690;2022-10-10T14:44:52;10.90;;;5.70;;
71080;SDS011;58740;50.672;18.690;2022-10-10T14:47:21;9.00;;;4.80;;
71080;SDS011;58740;50.672;18.690;2022-10-10T14:49:50;10.20;;;6.00;;
71080;SDS011;58740;50.672;18.690;2022-10-10T14:52:24;10.60;;;6.20;;
71080;SDS011;58740;50.672;18.690;2022-10-10T14:54:52;12.20;;;5.50;;
71080;SDS011;58740;50.672;18.690;2022-10-10T14:57:20;11.10;;;4.70;;
71080;SDS011;58740;50.672;18.690;2022-10-10T14:59:49;11.50;;;5.50;;
71080;SDS011;58740;50.672;18.690;2022-10-10T15:02:19;14.00;;;5.90;;
71080;SDS011;58740;50.672;18.690;2022-10-10T15:04:49;10.00;;;5.70;;
71080;SDS011;58740;50.672;18.690;2022-10-10T15:07:17;9.70;;;5.10;;
71080;SDS011;58740;50.672;18.690;2022-10-10T15:09:46;11.00;;;5.20;;
71080;SDS011;58740;50.672;18.690;2022-10-10T15:12:38;10.20;;;6.00;;
71080;SDS011;58740;50.672;18.690;2022-10-10T15:15:12;11.30;;;6.20;;
71080;SDS011;58740;50.672;18.690;2022-10-10T15:17:40;11.90;;;6.20;;
71080;SDS011;58740;50.672;18.690;2022-10-10T15:20:10;20.90;;;7.20;;
71080;SDS011;58740;50.672;18.690;2022-10-10T15:22:40;13.70;;;7.70;;
71080;SDS011;58740;50.672;18.690;2022-10-10T15:25:08;10.50;;;5.80;;
71080;SDS011;58740;50.672;18.690;2022-10-10T15:27:36;10.80;;;6.00;;
71080;SDS011;58740;50.672;18.690;2022-10-10T15:30:06;12.10;;;6.50;;
71080;SDS011;58740;50.672;18.690;2022-10-10T15:32:37;14.30;;;6.90;;
71080;SDS011;58740;50.672;18.690;2022-10-10T15:35:06;11.60;;;7.20;;
71080;SDS011;58740;50.672;18.690;2022-10-10T15:37:38;13.50;;;6.90;;
71080;SDS011;58740;50.672;18.690;2022-10-10T15:40:06;12.10;;;7.30;;
71080;SDS011;58740;50.672;18.690;2022-10-10T15:42:34;14.40;;;8.10;;
71080;SDS011;58740;50.672;18.690;2022-10-10T15:45:02;14.90;;;7.20;;
71080;SDS011;58740;50.672;18.690;2022-10-10T15:47:30;10.50;;;6.70;;
71080;SDS011;58740;50.672;18.690;2022-10-10T15:49:58;11.40;;;6.00;;
71080;SDS011;58740;50.672;18.690;2022-10-10T15:52:25;11.20;;;7.10;;
71080;SDS011;58740;50.672;18.690;2022-10-10T15:54:53;15.40;;;8.10;;
71080;SDS011;58740;50.672;18.690;2022-10-10T15:57:20;13.50;;;7.60;;
71080;SDS011;58740;50.672;18.690;2022-10-10T15:59:49;14.50;;;8.30;;
71080;SDS011;58740;50.672;18.690;2022-10-10T16:02:17;15.00;;;7.80;;
71080;SDS011;58740;50.672;18.690;2022-10-10T16:04:45;16.70;;;9.60;;
71080;SDS011;58740;50.672;18.690;2022-10-10T16:07:13;12.30;;;7.50;;
71080;SDS011;58740;50.672;18.690;2022-10-10T16:10:01;13.50;;;7.70;;
71080;SDS011;58740;50.672;18.690;2022-10-10T16:12:28;14.80;;;8.40;;
71080;SDS011;58740;50.672;18.690;2022-10-10T16:14:56;16.40;;;9.60;;
71080;SDS011;58740;50.672;18.690;2022-10-10T16:17:23;20.10;;;10.30;;
71080;SDS011;58740;50.672;18.690;2022-10-10T16:19:51;16.60;;;10.20;;
71080;SDS011;58740;50.672;18.690;2022-10-10T16:22:19;15.00;;;9.20;;
71080;SDS011;58740;50.672;18.690;2022-10-10T16:24:46;16.70;;;8.20;;
71080;SDS011;58740;50.672;18.690;2022-10-10T16:27:36;15.40;;;9.50;;
71080;SDS011;58740;50.672;18.690;2022-10-10T16:30:04;17.40;;;10.10;;
71080;SDS011;58740;50.672;18.690;2022-10-10T16:32:33;15.50;;;9.10;;
71080;SDS011;58740;50.672;18.690;2022-10-10T16:35:09;11.10;;;6.60;;
71080;SDS011;58740;50.672;18.690;2022-10-10T16:37:37;12.60;;;6.30;;
71080;SDS011;58740;50.672;18.690;2022-10-10T16:40:06;10.90;;;6.40;;
71080;SDS011;58740;50.672;18.690;2022-10-10T16:42:34;18.10;;;8.70;;
71080;SDS011;58740;50.672;18.690;2022-10-10T16:45:02;16.50;;;7.90;;
71080;SDS011;58740;50.672;18.690;2022-10-10T16:47:30;14.20;;;7.40;;